This is the latest recevied weather packets stored in our database for station/object KJ4HF. If no packets are shown the sender has not sent any weather packets the latest 10 day(s).
| Time | Temp. | Humidity | Pressure | Rain* | Wind** | Luminosity | Snow |
|---|---|---|---|---|---|---|---|
| 1777660842 | 18.89° C | 49% | 1014 hPa | 0 mm | - | 784 W/m² | - |
| 1777660542 | 18.89° C | 49% | 1014 hPa | 0 mm | - | 621 W/m² | - |
| 1777660256 | 18.33° C | 46% | 1014.1 hPa | 0 mm | - | 594 W/m² | - |
| 1777658742 | 18.89° C | 47% | 1014.5 hPa | 0 mm | - | 1048 W/m² | - |
| 1777657844 | 17.78° C | 46% | 1014.6 hPa | 0 mm | - | 482 W/m² | - |
| 1777656043 | 17.22° C | 47% | 1014.8 hPa | 0 mm | - | 1021 W/m² | - |
| 1777652147 | 16.67° C | 51% | 1015.9 hPa | 0 mm | - | 912 W/m² | - |
| 1777649144 | 15.56° C | 53% | 1016.2 hPa | 0 mm | - | 986 W/m² | - |
| 1777647042 | 14.44° C | 58% | 1016.3 hPa | 0 mm | - | 582 W/m² | - |
| 1777646753 | 14.44° C | 56% | 1016.5 hPa | 0 mm | - | 592 W/m² | - |
| 1777646143 | 13.89° C | 56% | 1016.4 hPa | 0 mm | - | 420 W/m² | - |
| 1777644641 | 12.78° C | 60% | 1016.1 hPa | 0 mm | - | 591 W/m² | - |
| 1777644341 | 12.78° C | 57% | 1016.2 hPa | 0 mm | - | 425 W/m² | - |
| 1777644058 | 13.33° C | 57% | 1016.2 hPa | 0 mm | - | 554 W/m² | - |
| 1777642843 | 12.22° C | 62% | 1016.2 hPa | 0 mm | - | 471 W/m² | - |
| 1777642256 | 11.67° C | 62% | 1016.2 hPa | 0 mm | - | 223 W/m² | - |
| 1777638670 | 10.56° C | 66% | 1015.8 hPa | 0 mm | - | 104 W/m² | - |
| 1777635641 | 10.56° C | 71% | 1016.1 hPa | 0 mm | - | 42 W/m² | - |
| 1777634742 | 10° C | 70% | 1016 hPa | 0 mm | - | 60 W/m² | - |
| 1777634149 | 10° C | 69% | 1015.8 hPa | 0 mm | - | 30 W/m² | - |
| 1777630550 | 10° C | 66% | 1015.1 hPa | 0 mm | - | 0 W/m² | - |
| 1777629342 | 10.56° C | 63% | 1015 hPa | 0 mm | - | 0 W/m² | - |
| 1777629042 | 10.56° C | 63% | 1015 hPa | 0 mm | - | 0 W/m² | - |
| 1777628764 | 10.56° C | 63% | 1015 hPa | 0 mm | - | 0 W/m² | - |
| 1777627847 | 11.11° C | 59% | 1015 hPa | 0 mm | - | 0 W/m² | - |
* Rain latest hour (hover to see other rain measurements)
** Current wind speed in m/s (hover to see current wind gust speed)